F/V Men Ar Groas — FIKN — position and weather

sailwx.info

Track history (hours):
 
Tides and Currents Weather Stations Pressure Air Temp Water Temp Dewpoint Dewpoint Depression Visibility Wind Speed Wind Dir Waves Ship Positions

F/V Men Ar Groas

Last reported at 2018-Jun-24 09:11 UTC. Time now 2018-Jun-24 12:47 UTC.
Position N 47°14' W 005°24'.

Length 20 m.

Type: Other ship. MMSI: 227877000.

Date/timePositionNaut miles runAvg speedWind from/ knotsBaromVisibWave heightAir tempDewpointWater temp
2018-Jun-24 09:11N 47°14' W 005°24'2 2.5
2018-Jun-24 08:29N 47°13' W 005°26'1 2.3
2018-Jun-24 07:55N 47°12' W 005°28'1 2.3
2018-Jun-24 07:30N 47°13' W 005°29'2 2.2
2018-Jun-24 06:46N 47°13' W 005°31'1 2.2
2018-Jun-24 06:28N 47°13' W 005°32'1 2.6
2018-Jun-24 06:00N 47°13' W 005°34'12 2.1
2018-Jun-24 00:25N 47°18' W 005°19'1 1.6
2018-Jun-23 23:59N 47°19' W 005°20'4 0.2
2018-Jun-22 23:11N 47°21' W 005°25'14 0.3
2018-Jun-21 05:46N 47°25' W 005°06'1 2.2
2018-Jun-21 05:23N 47°25' W 005°07'3 1.7
2018-Jun-21 03:41N 47°24' W 005°11'1 1.6
2018-Jun-21 02:47N 47°22' W 005°11'1 2.2
2018-Jun-21 02:26N 47°23' W 005°12'1 2.2
2018-Jun-21 01:58N 47°24' W 005°13'1 2.0
2018-Jun-21 01:21N 47°24' W 005°15'2 1.8
2018-Jun-21 00:30N 47°25' W 005°17'4 1.8
2018-Jun-20 22:10N 47°27' W 005°22'0 2.4
2018-Jun-20 22:00N 47°27' W 005°23'11 2.3
2018-Jun-20 17:07N 47°18' W 005°33'0 2.5
2018-Jun-20 17:00N 47°18' W 005°33'1 2.4
2018-Jun-20 16:30N 47°17' W 005°33'1 2.7
2018-Jun-20 15:57N 47°15' W 005°33'6 1.6
2018-Jun-20 12:01N 47°19' W 005°27'0 3.1
2018-Jun-20 11:57N 47°19' W 005°26'5 1.5
2018-Jun-20 08:22N 47°25' W 005°27'2 2.7
2018-Jun-20 07:41N 47°25' W 005°30'11 1.9
2018-Jun-20 01:54N 47°14' W 005°29'1 2.5
2018-Jun-20 01:21N 47°16' W 005°29'1 2.8
2018-Jun-20 00:50N 47°17' W 005°28'6 2.9
2018-Jun-19 22:49N 47°22' W 005°24'5 2.8
2018-Jun-19 21:00N 47°27' W 005°24'0 0.0
2018-Jun-19 08:08N 47°27' W 005°24'0 2.6
2018-Jun-19 08:00N 47°27' W 005°25'13 1.7
2018-Jun-19 00:14N 47°16' W 005°16'2 2.2
2018-Jun-18 23:21N 47°17' W 005°14'4 2.7
2018-Jun-18 21:57N 47°20' W 005°11'6 2.8
2018-Jun-18 19:50N 47°26' W 005°11'2 2.1
2018-Jun-18 19:04N 47°27' W 005°13'1 2.5
2018-Jun-18 18:38N 47°27' W 005°15'  
Track history (hours):
 
Tides and Currents Weather Stations Pressure Air Temp Water Temp Dewpoint Dewpoint Depression Visibility Wind Speed Wind Dir Waves Ship Positions

F/V Men Ar Groas

Last reported at 2018-Jun-24 09:11 UTC. Time now 2018-Jun-24 12:47 UTC.
Position N 47°14' W 005°24'.

Length 20 m.

Type: Other ship. MMSI: 227877000.

Date/timePositionNaut miles runAvg speedWind from/ knotsBaromVisibWave heightAir tempDewpointWater temp
2018-Jun-24 09:11N 47°14' W 005°24'2 2.5
2018-Jun-24 08:29N 47°13' W 005°26'1 2.3
2018-Jun-24 07:55N 47°12' W 005°28'1 2.3
2018-Jun-24 07:30N 47°13' W 005°29'2 2.2
2018-Jun-24 06:46N 47°13' W 005°31'1 2.2
2018-Jun-24 06:28N 47°13' W 005°32'1 2.6
2018-Jun-24 06:00N 47°13' W 005°34'12 2.1
2018-Jun-24 00:25N 47°18' W 005°19'1 1.6
2018-Jun-23 23:59N 47°19' W 005°20'4 0.2
2018-Jun-22 23:11N 47°21' W 005°25'14 0.3
2018-Jun-21 05:46N 47°25' W 005°06'1 2.2
2018-Jun-21 05:23N 47°25' W 005°07'3 1.7
2018-Jun-21 03:41N 47°24' W 005°11'1 1.6
2018-Jun-21 02:47N 47°22' W 005°11'1 2.2
2018-Jun-21 02:26N 47°23' W 005°12'1 2.2
2018-Jun-21 01:58N 47°24' W 005°13'1 2.0
2018-Jun-21 01:21N 47°24' W 005°15'2 1.8
2018-Jun-21 00:30N 47°25' W 005°17'4 1.8
2018-Jun-20 22:10N 47°27' W 005°22'0 2.4
2018-Jun-20 22:00N 47°27' W 005°23'11 2.3
2018-Jun-20 17:07N 47°18' W 005°33'0 2.5
2018-Jun-20 17:00N 47°18' W 005°33'1 2.4
2018-Jun-20 16:30N 47°17' W 005°33'1 2.7
2018-Jun-20 15:57N 47°15' W 005°33'6 1.6
2018-Jun-20 12:01N 47°19' W 005°27'0 3.1
2018-Jun-20 11:57N 47°19' W 005°26'5 1.5
2018-Jun-20 08:22N 47°25' W 005°27'2 2.7
2018-Jun-20 07:41N 47°25' W 005°30'11 1.9
2018-Jun-20 01:54N 47°14' W 005°29'1 2.5
2018-Jun-20 01:21N 47°16' W 005°29'1 2.8
2018-Jun-20 00:50N 47°17' W 005°28'6 2.9
2018-Jun-19 22:49N 47°22' W 005°24'5 2.8
2018-Jun-19 21:00N 47°27' W 005°24'0 0.0
2018-Jun-19 08:08N 47°27' W 005°24'0 2.6
2018-Jun-19 08:00N 47°27' W 005°25'13 1.7
2018-Jun-19 00:14N 47°16' W 005°16'2 2.2
2018-Jun-18 23:21N 47°17' W 005°14'4 2.7
2018-Jun-18 21:57N 47°20' W 005°11'6 2.8
2018-Jun-18 19:50N 47°26' W 005°11'2 2.1
2018-Jun-18 19:04N 47°27' W 005°13'1 2.5
2018-Jun-18 18:38N 47°27' W 005°15'  

Dump ship's entire track history